sensor_id;sensor_type;location;lat;lon;timestamp;P1;durP1;ratioP1;P2;durP2;ratioP2
5827;SDS011;42583;50.240;8.444;2024-02-26T00:12:54;2.97;;;1.48;;
5827;SDS011;42583;50.240;8.444;2024-02-26T00:27:54;2.53;;;1.20;;
5827;SDS011;42583;50.240;8.444;2024-02-26T00:43:18;2.83;;;1.50;;
5827;SDS011;42583;50.240;8.444;2024-02-26T00:59:00;1.52;;;1.40;;
5827;SDS011;42583;50.240;8.444;2024-02-26T01:14:01;1.42;;;1.33;;
5827;SDS011;42583;50.240;8.444;2024-02-26T01:29:02;1.50;;;1.40;;
5827;SDS011;42583;50.240;8.444;2024-02-26T01:44:06;2.10;;;1.40;;
5827;SDS011;42583;50.240;8.444;2024-02-26T01:59:21;2.28;;;1.60;;
5827;SDS011;42583;50.240;8.444;2024-02-26T02:14:28;3.00;;;1.80;;
5827;SDS011;42583;50.240;8.444;2024-02-26T02:29:34;3.40;;;1.83;;
5827;SDS011;42583;50.240;8.444;2024-02-26T02:44:40;3.88;;;1.90;;
5827;SDS011;42583;50.240;8.444;2024-02-26T02:59:44;5.28;;;2.17;;
5827;SDS011;42583;50.240;8.444;2024-02-26T03:14:50;3.05;;;2.00;;
5827;SDS011;42583;50.240;8.444;2024-02-26T03:29:51;4.15;;;2.00;;
5827;SDS011;42583;50.240;8.444;2024-02-26T03:44:57;3.38;;;1.88;;
5827;SDS011;42583;50.240;8.444;2024-02-26T04:00:06;5.30;;;2.00;;
5827;SDS011;42583;50.240;8.444;2024-02-26T04:15:14;2.63;;;1.70;;
5827;SDS011;42583;50.240;8.444;2024-02-26T04:30:14;3.42;;;1.58;;
5827;SDS011;42583;50.240;8.444;2024-02-26T04:45:17;2.38;;;1.52;;
5827;SDS011;42583;50.240;8.444;2024-02-26T05:00:17;2.05;;;1.30;;
5827;SDS011;42583;50.240;8.444;2024-02-26T05:15:18;1.55;;;1.40;;
5827;SDS011;42583;50.240;8.444;2024-02-26T05:30:18;2.38;;;1.70;;
5827;SDS011;42583;50.240;8.444;2024-02-26T05:45:19;2.78;;;1.50;;
5827;SDS011;42583;50.240;8.444;2024-02-26T06:00:20;2.53;;;1.80;;
5827;SDS011;42583;50.240;8.444;2024-02-26T06:15:21;1.80;;;1.60;;
5827;SDS011;42583;50.240;8.444;2024-02-26T06:30:22;4.32;;;2.00;;
5827;SDS011;42583;50.240;8.444;2024-02-26T06:45:23;5.05;;;3.20;;
5827;SDS011;42583;50.240;8.444;2024-02-26T07:00:24;7.85;;;3.50;;
5827;SDS011;42583;50.240;8.444;2024-02-26T07:15:24;6.30;;;3.85;;
5827;SDS011;42583;50.240;8.444;2024-02-26T07:30:25;5.47;;;3.13;;
5827;SDS011;42583;50.240;8.444;2024-02-26T07:45:25;6.20;;;3.28;;
5827;SDS011;42583;50.240;8.444;2024-02-26T08:00:26;5.90;;;2.85;;
5827;SDS011;42583;50.240;8.444;2024-02-26T08:15:26;6.35;;;3.10;;
5827;SDS011;42583;50.240;8.444;2024-02-26T08:30:27;6.05;;;3.22;;
5827;SDS011;42583;50.240;8.444;2024-02-26T08:45:28;6.30;;;2.97;;
5827;SDS011;42583;50.240;8.444;2024-02-26T09:00:28;6.78;;;2.78;;
5827;SDS011;42583;50.240;8.444;2024-02-26T09:15:29;3.33;;;2.15;;
5827;SDS011;42583;50.240;8.444;2024-02-26T09:30:29;2.53;;;1.60;;
5827;SDS011;42583;50.240;8.444;2024-02-26T09:45:30;3.22;;;1.58;;
5827;SDS011;42583;50.240;8.444;2024-02-26T10:00:32;1.75;;;1.38;;
5827;SDS011;42583;50.240;8.444;2024-02-26T10:15:37;5.38;;;1.98;;
5827;SDS011;42583;50.240;8.444;2024-02-26T10:30:38;3.00;;;2.15;;
5827;SDS011;42583;50.240;8.444;2024-02-26T10:45:42;6.30;;;2.78;;
5827;SDS011;42583;50.240;8.444;2024-02-26T11:00:43;2.05;;;1.40;;
5827;SDS011;42583;50.240;8.444;2024-02-26T11:15:47;3.33;;;1.73;;
5827;SDS011;42583;50.240;8.444;2024-02-26T11:30:48;3.38;;;2.22;;
5827;SDS011;42583;50.240;8.444;2024-02-26T11:45:50;3.60;;;2.20;;
5827;SDS011;42583;50.240;8.444;2024-02-26T12:00:55;3.78;;;2.00;;
5827;SDS011;42583;50.240;8.444;2024-02-26T12:15:58;4.43;;;2.20;;
5827;SDS011;42583;50.240;8.444;2024-02-26T12:30:59;3.67;;;2.15;;
5827;SDS011;42583;50.240;8.444;2024-02-26T12:46:02;3.08;;;1.92;;
5827;SDS011;42583;50.240;8.444;2024-02-26T13:01:03;2.95;;;2.00;;
5827;SDS011;42583;50.240;8.444;2024-02-26T13:16:05;3.15;;;2.20;;
5827;SDS011;42583;50.240;8.444;2024-02-26T13:31:08;1.77;;;1.50;;
5827;SDS011;42583;50.240;8.444;2024-02-26T13:46:08;2.00;;;1.50;;
5827;SDS011;42583;50.240;8.444;2024-02-26T14:01:11;2.83;;;1.90;;
5827;SDS011;42583;50.240;8.444;2024-02-26T14:16:11;4.30;;;2.58;;
5827;SDS011;42583;50.240;8.444;2024-02-26T14:31:16;4.22;;;2.30;;
5827;SDS011;42583;50.240;8.444;2024-02-26T14:46:17;5.50;;;2.03;;
5827;SDS011;42583;50.240;8.444;2024-02-26T15:01:21;5.82;;;2.53;;
5827;SDS011;42583;50.240;8.444;2024-02-26T15:31:23;5.47;;;2.90;;
5827;SDS011;42583;50.240;8.444;2024-02-26T15:46:24;5.57;;;3.70;;
5827;SDS011;42583;50.240;8.444;2024-02-26T16:01:24;5.32;;;3.20;;
5827;SDS011;42583;50.240;8.444;2024-02-26T16:16:26;7.68;;;3.53;;
5827;SDS011;42583;50.240;8.444;2024-02-26T16:31:31;7.28;;;3.72;;
5827;SDS011;42583;50.240;8.444;2024-02-26T16:46:32;9.02;;;4.03;;
5827;SDS011;42583;50.240;8.444;2024-02-26T17:01:33;7.40;;;3.22;;
5827;SDS011;42583;50.240;8.444;2024-02-26T17:16:34;6.95;;;3.90;;
5827;SDS011;42583;50.240;8.444;2024-02-26T17:31:36;12.90;;;4.13;;
5827;SDS011;42583;50.240;8.444;2024-02-26T17:46:41;17.10;;;7.50;;
5827;SDS011;42583;50.240;8.444;2024-02-26T18:01:42;6.22;;;3.33;;
5827;SDS011;42583;50.240;8.444;2024-02-26T18:16:43;5.70;;;3.00;;
5827;SDS011;42583;50.240;8.444;2024-02-26T18:31:43;5.95;;;2.92;;
5827;SDS011;42583;50.240;8.444;2024-02-26T18:46:44;5.80;;;3.42;;
5827;SDS011;42583;50.240;8.444;2024-02-26T19:01:46;8.50;;;4.00;;
5827;SDS011;42583;50.240;8.444;2024-02-26T19:16:47;10.05;;;5.55;;
5827;SDS011;42583;50.240;8.444;2024-02-26T19:31:47;10.45;;;4.72;;
5827;SDS011;42583;50.240;8.444;2024-02-26T19:46:48;10.82;;;5.72;;
5827;SDS011;42583;50.240;8.444;2024-02-26T20:01:50;12.35;;;6.13;;
5827;SDS011;42583;50.240;8.444;2024-02-26T20:16:51;14.75;;;6.60;;
5827;SDS011;42583;50.240;8.444;2024-02-26T20:31:51;13.60;;;7.32;;
5827;SDS011;42583;50.240;8.444;2024-02-26T20:46:52;18.05;;;8.10;;
5827;SDS011;42583;50.240;8.444;2024-02-26T21:01:55;19.67;;;9.18;;
5827;SDS011;42583;50.240;8.444;2024-02-26T21:16:59;21.70;;;9.77;;
5827;SDS011;42583;50.240;8.444;2024-02-26T21:32:00;25.33;;;11.20;;
5827;SDS011;42583;50.240;8.444;2024-02-26T21:47:00;24.67;;;11.50;;
5827;SDS011;42583;50.240;8.444;2024-02-26T22:02:02;28.23;;;12.45;;
5827;SDS011;42583;50.240;8.444;2024-02-26T22:17:03;31.00;;;13.70;;
5827;SDS011;42583;50.240;8.444;2024-02-26T22:32:04;29.52;;;14.02;;
5827;SDS011;42583;50.240;8.444;2024-02-26T22:47:05;35.65;;;16.40;;
5827;SDS011;42583;50.240;8.444;2024-02-26T23:02:06;43.45;;;18.33;;
5827;SDS011;42583;50.240;8.444;2024-02-26T23:17:08;37.05;;;17.77;;
5827;SDS011;42583;50.240;8.444;2024-02-26T23:32:09;38.67;;;17.73;;
5827;SDS011;42583;50.240;8.444;2024-02-26T23:47:09;37.40;;;17.25;;
